Radoslav Bozhikov

Chief Scout - Ludogorets
20 Nov 2027
Saturday
Process

Personality

Adaptability (19) Ambition (16) Controversy (12) Loyalty (3) Pressure (11) Professionalism (8) Sportsmanship (3) Temperament (13)

Profile

Coaching Style Democratic
License Continental B
Determination 11
Man Management 5
Motivating 13
Discipline 11
Job Satisfaction
100%
Fatigue
0%
Role Chief Scout
Wage 51.1K p/w
Contract 14.03.2029

Performance

Behaviour Good
Training Effectiveness
43%
Player Development
35%
Injury Prevention
70%
Tactical Implementation
65%

Recent Events

Recommended a transfer target now
Attended a recruitment meeting now
Recommended a transfer target now
Attended a recruitment meeting now
Attended a recruitment meeting now
Recommended a transfer target now
Attended a recruitment meeting now
Assessed a player now

Currently Monitoring

337
Player Club Status Ability Confidence Watched Last Observed Latest Vote
Matías Pérez Racing Club Active 127 / 127 40% 3 18.11.2027 -
Santiago Longo Belgrano Active 128 / 125 40% 3 18.11.2027 -
Emanuel Mammana Vélez Active 133 / 131 40% 2 18.11.2027 -
Emanuel Coronel Rosario Central Active 129 / 125 40% 4 17.11.2027 -
Bryan Ramírez FC Cincinnati Active 133 / 133 40% 4 17.11.2027 -
Damyan Yordanov Spartak 1918 Active 113 / 116 30% 1 / 1m 17.11.2027 -
Nicolás Tripichio San Lorenzo Active 124 / 124 40% 1 17.11.2027 -
Mateo Mendoza Godoy Cruz Active 128 / 126 40% 6 16.11.2027 -
Lucas Souto Defensa y Justicia Active 129 / 126 40% 2 16.11.2027 -
Joao Ortiz Portland Timbers Active 131 / 127 40% 6 15.11.2027 -
Elías Báez Atlanta United FC Active 121 / 127 40% 4 15.11.2027 -
Franco Ibarra Rosario Central Active 131 / 130 40% 2 15.11.2027 -
Gonzalo Abrego Godoy Cruz Active 125 / 125 40% 4 14.11.2027 -
Loïc Williams Colorado Rapids Active 131 / 128 40% 4 14.11.2027 -
Federico Navarro Rosario Central Active 131 / 129 40% 2 14.11.2027 -
Bruno Leyes Godoy Cruz Active 129 / 128 40% 2 12.11.2027 -
Ignacio Vázquez Platense Active 129 / 128 40% 2 10.11.2027 -
Ulises Ortegoza Talleres Active 128 / 124 40% 2 09.11.2027 -
Joaquín García Vélez Active 127 / 128 40% 3 09.11.2027 -
Matheus Thuler Vissel Kobe Active 130 / 129 40% 8 07.11.2027 -
Felipe Peña Biafore Lanús Active 133 / 128 40% 4 07.11.2027 -
Sheyko Studer Independiente Rivadavia Active 122 / 127 40% 1 07.11.2027 -
Rodrigo Herrera Newell's Old Boys Active 122 / 121 40% 2 06.11.2027 -
Franco Díaz Temperley Active 124 / 121 40% 2 06.11.2027 -
Marcos López San Martín Active 128 / 130 40% 1 06.11.2027 -
Ezequiel Cannavo Defensa y Justicia Active 128 / 130 40% 5 05.11.2027 -
Santiago González Tigre Active 126 / 131 40% 3 02.11.2027 -
Damián Fernández Defensa y Justicia Active 127 / 129 40% 7 02.11.2027 -
Hernán de la Fuente Instituto Active 124 / 120 40% 5 01.11.2027 -
Vicente Poggi Godoy Cruz Active 128 / 127 40% 3 31.10.2027 -
Oscar Salomón Newell's Old Boys Active 127 / 125 40% 3 31.10.2027 -
Keaton Parks New York City Active 129 / 128 40% 2 30.10.2027 -
Lucas Carrizo Newell's Old Boys Active 132 / 124 40% 5 29.10.2027 -
Eduardo Darias Vélez Active 131 / 128 40% 4 27.10.2027 -
Aarón Quiros Vélez Active 130 / 129 40% 3 26.10.2027 -
Sasha Marcich Lanús Active 126 / 123 40% 4 26.10.2027 -
Facundo Zabala Independiente Active 122 / 126 40% 1 26.10.2027 -
Federico Pereira Huracán Active 141 / 138 40% 3 25.10.2027 -
Lucas Arce Godoy Cruz Active 124 / 124 40% 5 20.10.2027 -
Sebastián Valdez Independiente Active 127 / 124 40% 1 17.10.2027 -
Koffi Kouao Neftchi Active 121 / 127 40% 3 16.10.2027 -
Juan Saborido Platense Active 126 / 126 40% 1 16.10.2027 -
Eduard Atuesta Orlando City Active 129 / 128 40% 1 12.10.2027 -
Tomás Silva Platense Active 130 / 127 40% 2 10.10.2027 -
Gastón Hernández San Lorenzo Active 130 / 128 40% 2 09.10.2027 -
Fernando Martínez Central Córdoba SdE Active 119 / 119 40% 2 09.10.2027 -
Gastón Benedetti Estudiantes Active 130 / 125 40% 1 29.09.2027 -
Teruki Hara Nagoya Grampus Active 129 / 120 40% 1 19.09.2027 -
Mauricio Amaro Atlanta United FC Active 129 / 133 40% 2 15.09.2027 -
César Pérez Defensa y Justicia Active 125 / 130 40% 2 12.09.2027 -
César Ibáñez Huracán Active 123 / 124 40% 1 12.09.2027 -
Patrick Yazbek Nashville SC Active 131 / 121 40% 1 06.09.2027 -
Aune Heggebø West Bromwich Albion Active 126 / 127 40% 5 30.08.2027 -
Jayden Danns Wigan Athletic Active 128 / 137 40% 1 30.08.2027 -
Alexis Cuello San Lorenzo Active 129 / 122 40% 1 30.08.2027 -
Jarrod Bowen West Ham United Active 157 / 157 40% 1 25.08.2027 -
Ousmane Camara Sharjah Active 130 / 125 40% 1 25.08.2027 -
Nicolás Fernández Belgrano Lost 127 / 127 40% 1 25.08.2027 -
Santiago Pierotti Lecce Active 131 / 131 40% 3 18.08.2027 -
Tasos Douvikas Como Active 148 / 145 40% 2 18.08.2027 -
Tomás Chancalay Minnesota United FC Active 136 / 129 40% 1 18.08.2027 -
Breel Embolo Atlanta United FC Active 146 / 135 40% 3 17.08.2027 -
Zakaria Aboukhlal Torino Active 140 / 143 40% 3 17.08.2027 -
Bongokuhle Hlongwane Minnesota United FC Active 127 / 130 40% 1 17.08.2027 -
Jérémy Le Douaron Palermo Active 129 / 128 40% 4 16.08.2027 -
Konan N'Dri Lecce Active 133 / 128 40% 3 16.08.2027 -
Giorgi Kvernadze Frosinone Active 132 / 130 40% 3 16.08.2027 -
Liel Abada Charlotte Football Club Active 136 / 139 40% 2 12.08.2027 -
Albion Rrahmani Venezia Active 127 / 132 40% 3 12.08.2027 -
Felipe Augusto Juventus Active 136 / 141 40% 1 11.08.2027 -
Florian Grillitsch Frosinone Lost 141 / 138 40% 1 11.08.2027 -
Thierry Rendall Correia Venezia Active 150 / 143 40% 1 11.08.2027 -
Danilo Veiga Lecce Active 128 / 126 40% 1 11.08.2027 -
Odilon Kossounou Atalanta Active 156 / 151 40% 1 10.08.2027 -
Oumar Solet Udinese Active 154 / 151 40% 1 10.08.2027 -
Anthony Oyono Frosinone Active 123 / 125 40% 1 10.08.2027 -
Oliver Skipp Leicester City Active 137 / 135 40% 3 07.08.2027 -
Toby Collyer West Bromwich Albion Active 132 / 134 40% 3 07.08.2027 -
Kortney Hause Bristol Rovers Lost 124 / 117 40% 1 07.08.2027 -
Nobel Mendy Hull City Active 140 / 144 40% 2 06.08.2027 -
Tariq Lamptey Queens Park Rangers Active 135 / 142 40% 4 06.08.2027 -
Tim Iroegbunam Hull City Active 139 / 141 40% 2 06.08.2027 -
Mathias Pereira Lage St. Pauli Active 139 / 132 40% 2 04.08.2027 -
Edoardo Bove Watford Active 135 / 131 40% 1 02.08.2027 -
Kenny Tete Fulham Active 150 / 148 40% 1 02.08.2027 -
Roger François Udinese Active 143 / 153 40% 1 02.08.2027 -
Vitinha Genoa Active 132 / 139 40% 7 31.07.2027 -
Oli McBurnie Hull City Active 135 / 139 40% 5 31.07.2027 -
Sidiki Chérif Coventry City Active 130 / 136 40% 2 31.07.2027 -
Tyrese Campbell Sheffield United Active 136 / 128 40% 3 30.07.2027 -
Elijah Adebayo Luton Town Active 128 / 123 40% 4 30.07.2027 -
Amin Sarr Hellas Verona Active 137 / 127 40% 4 29.07.2027 -
Victor Torp Coventry City Active 138 / 136 40% 6 29.07.2027 -
Callum Brittain Middlesbrough Active 135 / 134 40% 2 29.07.2027 -
Alfie Doughty Millwall Active 129 / 133 40% 2 29.07.2027 -
Welington Southampton Active 140 / 137 40% 1 29.07.2027 -
Youssef En-Nesyri Al-Ittihad Active 147 / 142 40% 5 27.07.2027 -
Pablo Felipe West Ham United Active 136 / 138 40% 2 27.07.2027 -
Žan Vipotnik Swansea City Active 128 / 129 40% 2 26.07.2027 -
Zian Flemming Ipswich Town Active 141 / 131 40% 8 26.07.2027 -
Paik Seung-Ho Birmingham Active 129 / 132 40% 1 26.07.2027 -
Fábio Carvalho Brentford Active 145 / 138 40% 1 26.07.2027 -
Florentino Luís Ipswich Town Active 140 / 142 40% 3 24.07.2027 -
Kristoffer Lund Birmingham Active 132 / 129 40% 1 24.07.2027 -
Shea Charles Southampton Active 135 / 140 40% 3 23.07.2027 -
Saša Lukić Ipswich Town Active 143 / 146 40% 3 23.07.2027 -
Imrân Louza Watford Active 137 / 132 40% 3 22.07.2027 -
Gustavo Hamer Sheffield United Active 135 / 131 40% 1 22.07.2027 -
Toti Wolverhampton Active 136 / 131 40% 1 21.07.2027 -
Harry Clarke Preston Active 132 / 132 40% 1 20.07.2027 -
Jay Stansfield Birmingham Active 135 / 126 40% 3 19.07.2027 -
George Hirst Stoke City Active 142 / 135 40% 2 18.07.2027 -
Jovon Makama Norwich City Active 131 / 130 40% 1 18.07.2027 -
Mohamed-Ali Cho Hull City Active 138 / 141 40% 4 17.07.2027 -
Isaiah Jones Luton Town Active 126 / 122 40% 2 17.07.2027 -
Zeidane Inoussa Swansea City Active 133 / 125 40% 1 16.07.2027 -
Todd Cantwell Blackburn Rovers Active 138 / 135 40% 1 16.07.2027 -
Brayan Gil Baltika Active 128 / 125 40% 7 14.07.2027 -
Ivan Toney Al-Ahli Active 150 / 154 40% 8 14.07.2027 -
Willem Geubbels Lecce Active 133 / 132 40% 2 14.07.2027 -
Lorenzo Colombo Genoa Active 136 / 138 40% 1 13.07.2027 -
Lyle Foster Burnley Active 133 / 130 40% 2 12.07.2027 -
Hwang Hee-Chan Wolverhampton Active 137 / 140 40% 1 12.07.2027 -
Julio Alonso Huesca Active 124 / 126 40% 1 10.07.2027 -
Japhet Tanganga Sheffield United Active 132 / 135 40% 1 10.07.2027 -
Lee Buchanan Sheffield Wednesday Active 122 / 118 40% 1 08.07.2027 -
Atsuki Ito Bolton Wanderers Active 125 / 128 40% 3 06.07.2027 -
Junior Tchamadeu Stoke City Active 124 / 125 40% 1 06.07.2027 -
Justin Devenny Stoke City Active 132 / 125 40% 3 05.07.2027 -
Hamza Choudhury Leicester City Active 128 / 129 40% 1 05.07.2027 -
Lewis Gibson Preston Active 133 / 131 40% 1 05.07.2027 -
Aidan Morris Middlesbrough Active 136 / 134 40% 2 30.06.2027 -
Lewis Bate Stockport County Active 131 / 123 40% 1 30.06.2027 -
Teden Mengi Luton Town Active 128 / 131 40% 3 29.06.2027 -
Ramón Terrats Getafe Active 143 / 138 40% 3 29.06.2027 -
Matt Clarke Derby County Active 132 / 130 40% 1 29.06.2027 -
Tristan Crama Millwall Active 127 / 129 40% 2 28.06.2027 -
Guille Rosas Gijón Active 142 / 140 40% 1 27.06.2027 -
Petko Hristov Spezia Active 134 / 131 40% 2 25.06.2027 -
Callum Doyle Wrexham Active 133 / 132 40% 1 25.06.2027 -
Kellen Fisher Norwich City Active 124 / 121 40% 2 23.06.2027 -
Ousmane Diakité West Bromwich Albion Active 127 / 126 40% 1 23.06.2027 -
Jacques Ekomié Wrexham Active 126 / 131 40% 1 22.06.2027 -
Michael Cooper Sheffield United Active 135 / 135 40% 2 18.06.2027 -
Radek Vítek Middlesbrough Active 139 / 142 40% 3 18.06.2027 -
Lucas Bruera Carabobo Active 126 / 122 40% 2 18.06.2027 -
Fedor Lapoukhov CSKA Sofia Active 122 / 126 40% 7 17.06.2027 Monitor
Nicolas Schmid Portsmouth Active 120 / 125 40% 1 17.06.2027 -
Arijanet Murić Sassuolo Active 147 / 138 40% 1 17.06.2027 -
Svetoslav Vutsov Levski Active 130 / 131 40% 6 16.06.2027 -
Cameron Pring Bristol City Active 122 / 129 40% 1 16.06.2027 -
Felipe Zenobio Tigre Active 132 / 128 40% 2 14.06.2027 -
Daniel Iversen Preston Active 135 / 131 40% 1 14.06.2027 -
Lorenzo Palmisani Frosinone Active 125 / 135 40% 3 13.06.2027 -
George Wickens Lincoln City Active 125 / 118 40% 2 13.06.2027 -
Anthony Patterson Wrexham Active 130 / 133 40% 2 12.06.2027 -
Cristopher Varela Deportivo La Guaira Active 123 / 122 40% 4 11.06.2027 -
Egil Selvik Watford Active 129 / 132 40% 2 11.06.2027 -
Viktor Johansson Stoke City Active 140 / 141 40% 2 08.06.2027 -
Nathan Trott Cardiff City Active 127 / 123 40% 1 06.06.2027 -
Jacob Karlstrøm Anorthosis Active 123 / 119 40% 1 06.06.2027 -
Bento Lokomotiv Moscow Active 141 / 139 40% 6 05.06.2027 -
Đorđe Petrović Bournemouth Active 154 / 147 40% 1 05.06.2027 -
Mohamed Brahimi CSKA Sofia Active 107 / 109 79% 1 04.06.2027 Approve
Sipho Chaine Orlando Pirates Active 125 / 118 40% 1 04.06.2027 -
Vladan Kovačević Norwich City Active 114 / 118 40% 1 04.06.2027 -
Maílson Al-Taawoun Active 124 / 128 40% 1 31.05.2027 -
Jacob Widell Zetterström Derby County Active 137 / 126 40% 1 31.05.2027 -
Callum O'Hare Sheffield United Active 126 / 132 40% 4 30.05.2027 -
Leandro Godoy CSKA Sofia Lost 122 / 118 79% 4 29.05.2027 -
Bertrand Traoré Sunderland Active 134 / 134 40% 4 29.05.2027 -
Nikola Vlašić Torino Active 141 / 146 40% 2 28.05.2027 -
Keinan Davis Udinese Active 130 / 137 40% 8 27.05.2027 -
Iqraam Rayners Mamelodi Sundowns Active 126 / 126 40% 2 25.05.2027 -
Cameron Archer Southampton Active 131 / 128 40% 3 25.05.2027 -
Mattia Felici Cagliari Active 130 / 127 40% 6 24.05.2027 -
Rumarn Burrell Queens Park Rangers Active 132 / 119 40% 4 24.05.2027 -
Arthur Beroe Active 111 / 118 40% 6 22.05.2027 -
Nahuel Galardi Maipú Active 113 / 110 40% 1 22.05.2027 -
Ross Stewart Southampton Active 120 / 127 40% 4 20.05.2027 -
Joe Gelhardt Hull City Active 133 / 136 40% 2 20.05.2027 -
Walid Cheddira Avellino Active 121 / 126 40% 6 18.05.2027 -
Tommy Conway Middlesbrough Active 137 / 127 40% 1 18.05.2027 -
Sindre Walle Egeli Nottingham Forest Active 124 / 138 40% 4 16.05.2027 -
Ben Chrisene Sheffield Wednesday Active 125 / 127 40% 2 16.05.2027 -
Riquelme Thompson-Jones Shrewsbury Town Active 104 / 116 40% 1 16.05.2027 -
Andrei Coubiş Lincoln City Active 120 / 115 40% 1 16.05.2027 -
Federico Losas Chacarita Juniors Active 120 / 115 40% 1 15.05.2027 -
Murphy Cooper Plymouth Argyle Active 112 / 111 40% 1 15.05.2027 -
Luca Gemello Perugia Active 112 / 112 40% 1 15.05.2027 -
Bosun Lawal Stoke City Active 125 / 125 40% 1 14.05.2027 -
Tomáš Chorý Spartak Moscow Lost 140 / 141 40% 9 13.05.2027 -
Alexandr Koryakin Krasnodar Active 116 / 113 40% 2 11.05.2027 -
Gianluca Saro Foggia Active 112 / 116 40% 3 07.05.2027 -
Cian Ashford Cardiff City Active 120 / 121 40% 1 07.05.2027 -
Tom Fellows Southampton Active 141 / 131 40% 1 07.05.2027 -
Agustín Lastra Estudiantes Active 116 / 109 40% 1 07.05.2027 -
Carl Rushworth Coventry City Active 146 / 140 40% 1 02.05.2027 -
Marios Siabanis Volos NPS Active 114 / 115 40% 2 01.05.2027 -
Sol Brynn Middlesbrough Active 134 / 128 40% 1 01.05.2027 -
David Volk Dinamo Makhachkala Active 110 / 108 40% 1 27.04.2027 -
Kristiyan Stoyanov Slavia Sofia Active 115 / 109 40% 1 23.04.2027 -
Fran Vieites Exeter City Active 128 / 116 40% 1 15.04.2027 -
Josh Keeley Luton Town Active 121 / 128 40% 1 15.04.2027 -
Patrick Agyemang Derby County Active 118 / 120 40% 1 12.04.2027 -
Ollie Watkins Al-Hilal Active 151 / 150 40% 3 10.04.2027 -
Jordan Larsson Al-Ettifaq Active 122 / 125 40% 5 08.04.2027 -
Yousef Salech Cardiff City Active 134 / 128 40% 1 03.04.2027 -
Frédéric Perrot Union Berlin Active 134 / 136 40% 1 31.03.2027 -
Xavier Biscayzacú Sporting CP Active 127 / 132 40% 1 24.03.2027 -
Williams Mahlangu SuperSport United Active 107 / 110 40% 2 23.03.2027 -
Sergio Barlocco Trento Active 102 / 112 40% 1 23.03.2027 -
Simone Trimboli Mantova Active 121 / 125 40% 1 23.03.2027 -
Thulani Phiri Platinum Stars Active 114 / 117 40% 1 23.03.2027 -
Tommaso Barbieri Cremonese Active 132 / 136 40% 2 22.03.2027 -
Gonçalo Braga Lusitânia Lourosa Active 101 / 95 40% 1 22.03.2027 -
Manfred Ugalde Spartak Moscow Active 128 / 132 40% 3 17.03.2027 -
Ali Youssef Apollon Active 124 / 124 40% 4 15.03.2027 -
Yusuke Matsuo VfL Wolfsburg Active 129 / 126 40% 2 15.03.2027 -
Filip Stojilković Pisa Active 125 / 126 40% 3 15.03.2027 -
Panajot Qirko Partizani Tirana Active 112 / 107 40% 3 14.03.2027 -
Steven Bergwijn Al-Ittihad Active 155 / 144 40% 1 13.03.2027 -
Ammar Ramadan DAC Dunajska Streda Active 131 / 126 40% 9 11.03.2027 -
Ivan Sergeev Dinamo Moscow Active 121 / 123 40% 2 04.03.2027 -
Malick Fall Dobrudzha Active 93 / 97 40% 6 28.02.2027 -
Musab Al-Juwayr Al-Qadisiyah Active 124 / 130 40% 4 28.02.2027 -
Nicolò Bertola Udinese Active 141 / 140 40% 1 28.02.2027 -
Mateusz Kochalski Qarabag Active 136 / 133 40% 11 27.02.2027 -
Aldo Pérez Guarani Active 118 / 111 40% 2 27.02.2027 -
Dmitry Vorobjov Krasnodar Active 125 / 123 40% 2 27.02.2027 -
Marco Carnesecchi Torino Active 162 / 160 40% 1 27.02.2027 -
Matevž Vidovšek Olimpija Ljubljana Active 123 / 124 40% 4 23.02.2027 -
Vladimir Nazarov Pakhtakor Active 117 / 110 40% 2 23.02.2027 -
Kamogelo Sebelebele Orlando Pirates Active 112 / 121 40% 2 22.02.2027 -
Juraj Badelj Aris Active 119 / 120 40% 1 22.02.2027 -
Simphiwe Selepe Orlando Pirates Active 118 / 113 40% 1 22.02.2027 -
Luca Orellano Atlético Madrid Active 132 / 138 40% 2 21.02.2027 -
Matevž Dajčar Olimpija Ljubljana Active 112 / 107 40% 2 19.02.2027 -
Reda Khadra Qarabag Active 127 / 131 40% 7 17.02.2027 -
Aldair Faustino Levski Active 121 / 116 40% 2 16.02.2027 -
Hlompho Billiat Free State Stars Active 115 / 120 40% 1 16.02.2027 -
Isma Ruiz Córdoba Active 126 / 132 40% 1 16.02.2027 -
Julián Quiñones Al-Nassr Active 138 / 146 40% 1 14.02.2027 -
Nawaf Al-Aqidi Al-Nassr Active 123 / 120 40% 3 12.02.2027 -
Lucas Ocampos Paris Saint-Germain Lost 144 / 155 40% 2 10.02.2027 -
Martim Cunha Porto Active 104 / 104 40% 2 03.02.2027 -
Mirlind Daku Spartak Moscow Active 129 / 128 40% 1 03.02.2027 -
Ahmed Al-Nakhli Al-Hazem Active 115 / 111 40% 1 03.02.2027 -
Sam Gale Gillingham Active 95 / 108 40% 1 03.02.2027 -
Mohammed Abu Al-Shamat Al-Qadisiyah Active 118 / 124 40% 1 02.02.2027 -
Rushwin Dortley Kaizer Chiefs Active 107 / 112 40% 1 01.02.2027 -
Esequiel Barco Spartak Moscow Active 143 / 137 40% 6 31.01.2027 -
Ítalo Ural Active 111 / 112 40% 2 29.01.2027 -
Roger Fernandes Al-Ittihad Active 134 / 138 40% 1 27.01.2027 -
Camilo Durán Bloemfontein Celtic Active 115 / 116 40% 1 27.01.2027 -
Jordan Semedo Varela Slavia Sofia Active 100 / 99 40% 1 27.01.2027 -
Dion Lopy Al-Ittihad Active 137 / 128 40% 1 26.01.2027 -
Veljko Jelenković Olimpija Ljubljana Active 106 / 112 40% 1 26.01.2027 -
Andrey Langovich Rostov Active 115 / 121 40% 1 23.01.2027 -
Vasco Sousa Porto Active 127 / 128 40% 3 22.01.2027 -
Mahamadou Doumbia Al-Ittihad Active 123 / 133 40% 1 22.01.2027 -
Nuno Félix Benfica Active 116 / 115 40% 1 21.01.2027 -
Luther Ngcobo Ajax Cape Town Active 102 / 102 40% 1 21.01.2027 -
Sulaiman Hazazi Al-Riyadh Active 108 / 100 40% 1 19.01.2027 -
Reuell Walters Luton Town Active 114 / 113 40% 1 19.01.2027 -
Galeno Al-Ahli Active 150 / 146 40% 3 13.01.2027 -
Pastor CSKA Sofia Active 119 / 118 40% 4 13.01.2027 Monitor
Akinkunmi Amoo Najran Active 126 / 122 40% 2 13.01.2027 -
Christian Krasnodar Active 136 / 135 40% 8 08.01.2027 -
Marquinhos Spartak Moscow Active 130 / 127 40% 3 07.01.2027 -
Eduard Spertsyan Al-Ahli Active 142 / 144 40% 1 07.01.2027 -
Daniil Denisov Spartak Moscow Active 124 / 120 40% 1 06.01.2027 -
Léo Pereira CSKA Sofia Lost 119 / 119 40% 4 02.01.2027 -
Fernando Tapia Club America Active 135 / 134 40% 1 02.01.2027 -
Pablo Solari Spartak Moscow Active 130 / 128 40% 4 30.12.2026 -
Samuel Kalu Botev Plovdiv Active 115 / 117 40% 3 29.12.2026 Monitor
Jordan Lotomba Bloemfontein Celtic Active 128 / 127 40% 2 28.12.2026 -
Marquinhos APOEL Active 141 / 128 40% 1 27.12.2026 -
Relebohile Mofokeng Orlando Pirates Active 128 / 123 40% 4 26.12.2026 -
Jean-Philippe Gbamin CSKA Sofia Active 124 / 121 40% 10 25.12.2026 -
Pablo Lara Pumas UNAM Active 111 / 123 40% 1 24.12.2026 -
Batxi Krasnodar Active 136 / 130 40% 6 21.12.2026 -
Suleiman Camara Slovan Bratislava Active 126 / 120 40% 2 18.12.2026 -
Borislav Tsonev CSKA 1948 Active 123 / 113 40% 1 18.12.2026 -
Marko Grujić Levski Active 121 / 123 40% 3 14.12.2026 -
Brayan Medina Tondela Active 110 / 122 40% 1 10.12.2026 -
Georges-Kévin Nkoudou Al-Diriyah Active 137 / 125 40% 2 04.12.2026 -
Ivan Lomaev Ufa Active 110 / 108 40% 2 04.12.2026 -
Stanislav Ivanov Arda Active 118 / 115 40% 3 04.12.2026 Monitor
Gedson Fernandes Spartak Moscow Active 135 / 138 40% 5 29.11.2026 -
James Eto'o CSKA Sofia Active 117 / 126 40% 3 27.11.2026 -
Danil Glebov Dinamo Moscow Active 128 / 125 40% 2 23.11.2026 -
Álex Centelles Levski Active 123 / 125 40% 3 21.11.2026 -
Filip Marschall Stevenage Active 105 / 109 40% 1 19.11.2026 -
Dominik Takáč Slovan Bratislava Active 133 / 128 40% 6 15.11.2026 -
Luca Philipp TSG Hoffenheim Active 113 / 118 40% 3 15.11.2026 -
Rúben Neves Al-Hilal Active 155 / 152 40% 3 10.11.2026 -
Kirill Glebov CSKA Moscow Active 134 / 128 40% 1 10.11.2026 -
Nino Marcelli Slovan Bratislava Active 124 / 122 40% 1 10.11.2026 -
Theo Bongonda Al-Faisaly Active 134 / 131 40% 1 05.11.2026 -
Leandro Antunes Al-Riyadh Active 127 / 115 40% 1 30.10.2026 -
Nikita Kokarev Spartak Moscow Active 111 / 121 40% 8 29.10.2026 -
Matthias Seidl Rapid Wien Active 118 / 124 40% 2 29.10.2026 -
Sebastian Mailat Botosani Active 120 / 120 40% 1 22.10.2026 -
Samuel Brolin Kalmar FF Active 103 / 108 40% 4 20.10.2026 -
Mads Hedenstad AGF Active 107 / 123 40% 1 19.10.2026 -
Isaac Solet CSKA Sofia Active 113 / 120 40% 1 12.10.2026 -
João Valido Chaves Active 106 / 104 40% 2 11.10.2026 -
Lechi Sadulaev Akhmat Grozny Active 118 / 120 40% 2 09.10.2026 -
Pavel Bucha FC Cincinnati Active 127 / 128 40% 1 09.10.2026 -
Imran Oulad Omar Dinamo Batumi Active 113 / 120 40% 2 05.10.2026 -
Chris Brady Bayer Leverkusen Active 119 / 126 40% 1 05.10.2026 -
Andrei Vlad Kairat Active 102 / 113 40% 3 02.10.2026 -
Pathé Ciss Cruz Azul Active 134 / 139 40% 3 01.10.2026 -
Ramiro Ruiz Rodríguez Atlético Tucumán Active 119 / 121 40% 2 01.10.2026 -
Oscar Al-Taawoun Active 141 / 148 40% 2 22.09.2026 -
Abduvohid Ne'matov Nasaf Active 127 / 119 40% 1 22.09.2026 -
Théo Hernández Al-Hilal Active 150 / 156 40% 1 19.09.2026 -
João Simões Sporting CP Active 126 / 143 40% 2 13.09.2026 -
Franco Cristaldo Talleres Active 120 / 125 40% 1 13.09.2026 -
Moisés CSKA Moscow Active 135 / 132 40% 1 11.09.2026 -
Richard Ludha MFK Skalica Active 108 / 114 40% 1 30.08.2026 -
Lautaro Amadé Defensa y Justicia Active 111 / 117 40% 1 24.08.2026 -
Matías Gómez Valencia Active 115 / 124 40% 1 20.08.2026 -
Joel Cotterill Swansea City Active 86 / 100 40% 1 20.08.2026 -
Sean Fusire Sheffield Wednesday Active 103 / 106 40% 1 19.08.2026 -
Rory Finneran Newcastle United Active 79 / 107 40% 1 19.08.2026 -
Joel Godoy Sarmiento Active 108 / 113 40% 1 19.08.2026 -
Thiago Silvero Sevilla Active 123 / 135 40% 1 18.08.2026 -
Isaí Valladares Zamora Active 94 / 106 40% 1 18.08.2026 -
Tobías Andrada Betis Active 111 / 132 40% 1 18.08.2026 -
Callum Olusesi Tottenham Active 93 / 120 40% 1 13.08.2026 -
Joaquín Silva Santiago Wanderers Active 89 / 90 40% 1 12.08.2026 -
José Martínes CSKA 1948 Active 109 / 107 72% 1 10.08.2026 Approve
Parvizjon Umarbaev Lokomotiv Plovdiv Active 112 / 110 72% 1 03.08.2026 Approve
Chidera Ejuke Sevilla Active 132 / 134 40% 1 01.08.2026 -
Sergio Gómez Real Sociedad Active 135 / 135 40% 1 01.08.2026 -